Time;durP1;ratioP1;P1;durP2;ratioP2;P2;SDS_P1;SDS_P2;PMS_P1;PMS_P2;Temp;Humidity;BMP_temperature;BMP_pressure;BME280_temperature;BME280_humidity;BME280_pressure;Samples;Min_cycle;Max_cycle;Signal;HPM_P1;HPM_P2
2021/09/24 02:03:57;;;;;;;5.25;3.58;;;;;;;15.80;62.26;97781.00;4461862;29;20526;-76
2021/09/24 02:06:22;;;;;;;6.22;3.75;;;;;;;15.61;64.66;97776.88;4953074;29;20038;-77
2021/09/24 02:08:48;;;;;;;6.88;3.67;;;;;;;15.36;65.15;97778.84;4952824;29;20035;-75
2021/09/24 02:11:13;;;;;;;6.07;3.28;;;;;;;15.15;65.28;97783.31;4952376;29;20043;-78
2021/09/24 02:13:40;;;;;;;3.47;2.53;;;;;;;15.05;66.68;97791.25;4953041;29;20023;-78
2021/09/24 02:16:07;;;;;;;4.78;3.00;;;;;;;14.91;66.27;97791.53;4952533;29;20554;-77
2021/09/24 02:18:33;;;;;;;4.95;2.80;;;;;;;14.76;66.83;97791.06;4955202;29;20082;-77
2021/09/24 02:20:58;;;;;;;3.55;2.25;;;;;;;14.67;66.93;97782.81;4954746;29;20039;-78
2021/09/24 02:23:24;;;;;;;2.42;1.30;;;;;;;14.56;67.91;97798.19;4955115;29;20466;-77
2021/09/24 02:25:49;;;;;;;3.53;1.35;;;;;;;14.43;67.21;97792.63;4955115;29;20063;-77
2021/09/24 02:28:15;;;;;;;4.72;1.10;;;;;;;14.32;67.85;97799.69;4954975;29;20616;-75
2021/09/24 02:30:40;;;;;;;3.40;1.15;;;;;;;14.26;68.18;97804.59;4954722;29;20034;-76
2021/09/24 02:33:06;;;;;;;2.88;1.30;;;;;;;14.19;68.39;97798.81;4954921;29;20027;-77
2021/09/24 02:35:31;;;;;;;2.10;1.17;;;;;;;14.09;69.36;97818.53;4954927;29;20035;-77
2021/09/24 02:37:57;;;;;;;3.53;1.20;;;;;;;14.05;69.92;97817.59;4954839;29;20023;-78
2021/09/24 02:40:23;;;;;;;3.28;1.23;;;;;;;13.97;69.83;97809.06;4954723;29;20356;-77
2021/09/24 02:42:48;;;;;;;4.80;1.65;;;;;;;13.93;69.79;97810.84;4954896;29;20362;-77
2021/09/24 02:45:14;;;;;;;4.72;2.40;;;;;;;13.90;70.12;97813.47;4954474;29;20034;-78
2021/09/24 02:47:39;;;;;;;5.25;1.95;;;;;;;13.90;69.84;97808.75;4937322;29;20027;-77
2021/09/24 02:50:07;;;;;;;6.85;2.10;;;;;;;13.90;70.35;97819.78;4954491;29;20494;-77
2021/09/24 02:52:33;;;;;;;3.72;2.20;;;;;;;13.87;70.28;97819.63;4954226;29;20085;-78
2021/09/24 02:54:59;;;;;;;5.10;3.20;;;;;;;13.82;70.80;97817.88;4953434;29;20114;-79
2021/09/24 02:57:24;;;;;;;4.88;1.67;;;;;;;13.77;70.69;97827.16;4954174;29;20561;-79
2021/09/24 02:59:50;;;;;;;5.20;1.80;;;;;;;13.75;71.14;97836.91;4954038;29;20028;-78
2021/09/24 03:02:15;;;;;;;6.45;2.08;;;;;;;13.74;70.84;97835.28;4954199;29;20019;-78
2021/09/24 03:04:41;;;;;;;4.85;1.90;;;;;;;13.70;71.21;97829.63;4954480;29;20471;-79
2021/09/24 03:07:06;;;;;;;4.07;1.52;;;;;;;13.67;70.92;97836.59;4954433;29;20032;-79
2021/09/24 03:09:32;;;;;;;3.90;1.25;;;;;;;13.65;71.21;97836.13;4953858;29;20027;-78
2021/09/24 03:11:57;;;;;;;2.42;1.40;;;;;;;13.66;71.37;97834.19;4954131;28;20098;-78
2021/09/24 03:14:23;;;;;;;2.67;1.80;;;;;;;13.62;71.56;97847.00;4954379;29;20546;-78
2021/09/24 03:16:48;;;;;;;10.40;6.25;;;;;;;13.63;71.15;97843.94;4954014;29;20039;-79
2021/09/24 03:19:18;;;;;;;2.20;1.40;;;;;;;13.62;70.94;97836.00;4953625;29;20031;-78
2021/09/24 03:21:44;;;;;;;4.05;1.10;;;;;;;13.60;71.42;97836.34;4936641;29;20027;-77
2021/09/24 03:24:09;;;;;;;2.80;1.10;;;;;;;13.55;69.86;97836.53;4954039;29;20031;-78
2021/09/24 03:26:35;;;;;;;2.67;1.00;;;;;;;13.53;69.81;97861.63;4953922;29;20106;-78
2021/09/24 03:29:01;;;;;;;3.10;1.20;;;;;;;13.46;69.87;97844.00;4953693;29;20151;-76
2021/09/24 03:31:26;;;;;;;2.25;1.08;;;;;;;13.45;69.98;97848.69;4953413;29;20042;-78
2021/09/24 03:33:52;;;;;;;2.42;1.08;;;;;;;13.44;69.66;97852.63;4953928;29;20035;-77
2021/09/24 03:36:17;;;;;;;3.53;1.80;;;;;;;13.45;69.98;97847.91;4953965;29;20032;-78
2021/09/24 03:38:43;;;;;;;5.10;3.78;;;;;;;13.45;69.62;97850.66;4953651;29;20161;-77
2021/09/24 03:41:08;;;;;;;3.75;1.73;;;;;;;13.38;69.44;97853.91;4952973;29;20114;-77
2021/09/24 03:43:33;;;;;;;3.20;1.10;;;;;;;13.36;69.60;97851.47;4936663;29;20118;-78
2021/09/24 03:45:59;;;;;;;2.45;1.20;;;;;;;13.32;69.31;97863.47;4953660;29;20023;-78
2021/09/24 03:48:24;;;;;;;3.72;1.05;;;;;;;13.27;69.50;97858.16;4936356;29;20031;-78
2021/09/24 03:50:50;;;;;;;2.78;1.13;;;;;;;13.23;69.45;97872.56;4935592;29;20027;-77
2021/09/24 03:53:15;;;;;;;3.40;1.20;;;;;;;13.22;69.27;97862.69;4953472;29;20023;-78
2021/09/24 03:55:40;;;;;;;2.13;1.00;;;;;;;13.21;69.54;97887.81;4953499;29;20029;-77
2021/09/24 03:58:06;;;;;;;3.30;0.90;;;;;;;13.14;69.34;97879.25;4953341;29;20035;-77
2021/09/24 04:00:31;;;;;;;4.00;0.90;;;;;;;13.12;69.49;97865.00;4935628;29;20535;-78
2021/09/24 04:02:57;;;;;;;3.25;1.05;;;;;;;13.05;69.33;97869.06;4952819;29;20459;-78
2021/09/24 04:05:22;;;;;;;5.13;2.20;;;;;;;13.04;69.30;97870.19;4953263;29;20027;-77
2021/09/24 04:07:47;;;;;;;7.25;3.55;;;;;;;13.03;69.24;97871.31;4953276;29;20057;-78
2021/09/24 04:10:13;;;;;;;5.38;2.67;;;;;;;13.04;69.15;97867.44;4952540;29;20031;-78
2021/09/24 04:12:38;;;;;;;16.38;8.65;;;;;;;13.03;69.24;97887.84;4953054;29;20468;-78
2021/09/24 04:15:05;;;;;;;6.07;2.78;;;;;;;13.02;69.24;97882.66;4953434;29;20083;-78
2021/09/24 04:17:30;;;;;;;7.65;4.85;;;;;;;12.98;69.30;97885.25;4952850;29;20018;-77
2021/09/24 04:19:55;;;;;;;6.57;3.50;;;;;;;12.93;69.13;97899.19;4952599;29;20110;-78
2021/09/24 04:22:21;;;;;;;6.32;2.50;;;;;;;12.92;68.93;97883.81;4952723;28;20110;-78
2021/09/24 04:24:47;;;;;;;5.90;2.10;;;;;;;12.89;68.89;97887.19;4952565;29;20023;-78
2021/09/24 04:27:13;;;;;;;6.68;2.90;;;;;;;12.85;69.12;97888.97;4952766;29;20034;-77
2021/09/24 04:29:38;;;;;;;2.80;1.75;;;;;;;12.81;68.87;97894.34;4952656;29;20049;-78
2021/09/24 04:32:04;;;;;;;4.63;1.50;;;;;;;12.76;68.83;97905.50;4952581;29;20064;-78
2021/09/24 04:34:30;;;;;;;4.68;1.48;;;;;;;12.73;69.13;97917.16;4953224;29;20034;-78
2021/09/24 04:36:55;;;;;;;4.05;1.67;;;;;;;12.70;69.00;97917.81;4952923;29;20026;-78
2021/09/24 04:39:20;;;;;;;4.03;1.63;;;;;;;12.69;69.08;97914.25;4952298;29;20040;-77
2021/09/24 04:41:46;;;;;;;6.82;2.17;;;;;;;12.64;69.25;97923.47;4952732;29;20032;-78
2021/09/24 04:44:11;;;;;;;3.15;1.85;;;;;;;12.64;68.73;97928.97;4953224;29;20023;-78
2021/09/24 04:46:37;;;;;;;7.88;2.33;;;;;;;12.62;68.68;97941.44;4952962;29;20039;-78
2021/09/24 04:49:02;;;;;;;6.75;2.50;;;;;;;12.63;68.68;97943.06;4952695;29;20491;-77
2021/09/24 04:51:28;;;;;;;3.05;1.45;;;;;;;12.62;68.77;97934.00;4952228;29;20043;-77
2021/09/24 04:53:53;;;;;;;5.95;2.00;;;;;;;12.60;68.20;97938.19;4952738;29;20472;-77
2021/09/24 04:56:19;;;;;;;5.65;1.83;;;;;;;12.59;67.94;97947.59;4952893;29;20047;-79
2021/09/24 04:58:44;;;;;;;5.10;2.83;;;;;;;12.57;68.23;97942.41;4952709;29;20031;-78
2021/09/24 05:01:10;;;;;;;7.22;4.32;;;;;;;12.56;67.72;97939.97;4950977;29;20031;-77
2021/09/24 05:03:35;;;;;;;14.40;5.13;;;;;;;12.54;67.95;97951.31;4951857;29;20046;-76
2021/09/24 05:06:01;;;;;;;14.27;5.50;;;;;;;12.54;67.75;97947.72;4952091;29;20035;-77
2021/09/24 05:08:27;;;;;;;10.23;3.42;;;;;;;12.55;67.63;97954.84;4952692;29;20035;-77
2021/09/24 05:10:52;;;;;;;5.25;1.80;;;;;;;12.54;66.85;97955.97;4951251;29;20031;-78
2021/09/24 05:13:17;;;;;;;4.22;1.48;;;;;;;12.51;67.19;97958.25;4952103;29;20399;-78
2021/09/24 05:15:43;;;;;;;4.63;1.50;;;;;;;12.56;66.79;97972.97;4952214;29;20027;-77
2021/09/24 05:18:08;;;;;;;4.20;1.50;;;;;;;12.51;66.79;97963.75;4935325;29;20440;-77
2021/09/24 05:20:34;;;;;;;5.90;1.38;;;;;;;12.50;67.24;97953.88;4950285;29;20031;-77
2021/09/24 05:22:59;;;;;;;2.92;1.20;;;;;;;12.52;67.02;97972.81;4952367;29;20023;-77
2021/09/24 05:25:25;;;;;;;4.50;2.25;;;;;;;12.54;67.00;97970.56;4934981;29;20526;-77
2021/09/24 05:27:52;;;;;;;4.57;1.85;;;;;;;12.53;67.19;97982.69;4952457;29;20020;-78
2021/09/24 05:30:18;;;;;;;6.65;2.15;;;;;;;12.55;66.69;97974.09;4934010;29;20046;-78
2021/09/24 05:32:44;;;;;;;7.60;1.67;;;;;;;12.54;66.66;97959.56;4933276;29;20125;-77
2021/09/24 05:35:10;;;;;;;7.03;1.70;;;;;;;12.60;66.64;97966.53;4951499;28;20504;-77
2021/09/24 05:37:36;;;;;;;3.80;1.23;;;;;;;12.59;66.30;97986.91;4956004;29;20042;-77
2021/09/24 05:40:03;;;;;;;5.72;1.73;;;;;;;12.61;65.84;97975.56;4954203;29;20118;-78
2021/09/24 05:42:29;;;;;;;4.53;1.70;;;;;;;12.64;66.16;97977.69;4955149;29;20183;-77
2021/09/24 05:44:55;;;;;;;5.47;1.42;;;;;;;12.68;66.36;97969.59;4955697;29;20489;-79
2021/09/24 05:47:21;;;;;;;6.30;1.42;;;;;;;12.69;65.41;97972.03;4955038;29;20027;-79
2021/09/24 05:49:46;;;;;;;2.92;1.70;;;;;;;12.70;65.70;97978.34;4954418;29;20038;-79
2021/09/24 05:52:12;;;;;;;7.60;1.60;;;;;;;12.68;65.41;97981.41;4954977;29;20075;-78
2021/09/24 05:54:37;;;;;;;6.63;1.88;;;;;;;12.63;64.75;97987.88;4955337;29;20039;-78
2021/09/24 05:57:03;;;;;;;4.75;1.33;;;;;;;12.63;65.01;97987.06;4955388;29;20038;-78
2021/09/24 05:59:28;;;;;;;4.30;1.63;;;;;;;12.60;65.58;97994.03;4954894;29;20531;-78
2021/09/24 06:01:53;;;;;;;10.65;4.70;;;;;;;12.58;64.88;97974.28;4937420;29;20035;-78
2021/09/24 06:04:19;;;;;;;9.85;4.25;;;;;;;12.58;64.73;97985.31;4955298;29;20045;-78
2021/09/24 06:06:46;;;;;;;12.95;6.45;;;;;;;12.56;64.83;97987.56;4955406;29;20054;-76
2021/09/24 06:09:11;;;;;;;8.32;4.75;;;;;;;12.55;64.58;97991.44;4954071;29;20031;-77
2021/09/24 06:11:37;;;;;;;7.00;4.50;;;;;;;12.52;64.36;97989.31;4937138;29;20045;-76
2021/09/24 06:14:03;;;;;;;14.77;4.32;;;;;;;12.51;64.18;97994.00;4955434;29;20058;-77
2021/09/24 06:16:29;;;;;;;9.43;3.75;;;;;;;12.51;64.53;98001.47;4937932;29;20375;-76
2021/09/24 06:18:55;;;;;;;11.65;3.75;;;;;;;12.54;64.45;98011.00;4954776;29;20039;-77
2021/09/24 06:21:21;;;;;;;13.10;5.82;;;;;;;12.57;64.32;98008.44;4953398;29;20070;-77
2021/09/24 06:23:47;;;;;;;17.85;7.18;;;;;;;12.59;64.29;98013.59;4937646;29;20467;-78
2021/09/24 06:26:13;;;;;;;7.88;2.90;;;;;;;12.57;64.24;98021.38;4954941;29;20027;-77
2021/09/24 06:28:38;;;;;;;16.10;6.35;;;;;;;12.55;63.79;98029.94;4955085;29;20375;-77
2021/09/24 06:31:04;;;;;;;7.03;3.20;;;;;;;12.50;64.16;98033.63;4954581;29;20148;-78
2021/09/24 06:33:30;;;;;;;10.52;3.00;;;;;;;12.47;63.73;98034.28;4954660;29;20383;-78
2021/09/24 06:35:56;;;;;;;15.13;4.03;;;;;;;12.47;64.12;98039.78;4954481;29;20031;-78
2021/09/24 06:38:21;;;;;;;11.07;4.05;;;;;;;12.48;63.67;98027.66;4954548;29;20038;-77
2021/09/24 06:40:47;;;;;;;13.02;2.65;;;;;;;12.47;63.30;98042.53;4954316;29;20153;-77
2021/09/24 06:43:13;;;;;;;6.97;2.90;;;;;;;12.47;63.30;98038.97;4954367;29;20023;-77
2021/09/24 06:45:38;;;;;;;8.18;2.53;;;;;;;12.43;63.52;98043.50;4952913;29;20030;-76
2021/09/24 06:48:05;;;;;;;3.88;1.60;;;;;;;12.39;63.42;98046.09;4954683;29;20082;-78
2021/09/24 06:50:31;;;;;;;8.45;1.90;;;;;;;12.38;62.81;98038.13;4953807;29;20101;-77
2021/09/24 06:52:57;;;;;;;8.55;2.50;;;;;;;12.42;63.27;98058.38;4953927;29;20038;-77
2021/09/24 06:55:25;;;;;;;7.55;2.10;;;;;;;12.39;62.70;98056.25;4953711;29;20383;-76
2021/09/24 06:57:52;;;;;;;13.30;5.93;;;;;;;12.39;62.97;98051.59;4952443;29;20027;-76
2021/09/24 07:00:18;;;;;;;8.27;3.03;;;;;;;12.41;63.48;98060.34;4937151;29;20030;-78
2021/09/24 07:02:43;;;;;;;5.88;2.25;;;;;;;12.45;63.15;98066.00;4953394;29;20593;-77
2021/09/24 07:05:10;;;;;;;9.38;2.50;;;;;;;12.42;62.45;98059.19;4954221;29;20027;-77
2021/09/24 07:07:36;;;;;;;7.05;2.28;;;;;;;12.41;62.27;98052.06;4953827;29;20043;-77
2021/09/24 07:10:02;;;;;;;8.80;2.30;;;;;;;12.40;62.52;98060.63;4952984;29;20019;-78
2021/09/24 07:12:27;;;;;;;9.30;2.55;;;;;;;12.41;62.52;98059.50;4953715;29;20501;-77
2021/09/24 07:14:52;;;;;;;5.68;1.88;;;;;;;12.44;61.64;98064.38;4953466;29;20035;-79
2021/09/24 07:17:18;;;;;;;7.85;2.25;;;;;;;12.49;62.28;98073.28;4953933;29;20023;-78
2021/09/24 07:19:43;;;;;;;7.25;2.67;;;;;;;12.51;62.65;98061.97;4953856;29;20035;-79
2021/09/24 07:22:09;;;;;;;5.60;2.15;;;;;;;12.50;61.94;98069.41;4952442;29;20031;-77
2021/09/24 07:24:35;;;;;;;9.30;2.80;;;;;;;12.49;62.20;98073.28;4953205;29;20118;-78
2021/09/24 07:27:00;;;;;;;12.40;2.67;;;;;;;12.55;62.14;98062.13;4953745;29;20372;-79
2021/09/24 07:29:26;;;;;;;7.90;2.30;;;;;;;12.54;62.02;98082.53;4950482;29;20042;-76
2021/09/24 07:31:51;;;;;;;12.02;3.90;;;;;;;12.54;62.18;98088.84;4953619;29;20027;-78
2021/09/24 07:34:17;;;;;;;9.00;2.63;;;;;;;12.56;62.87;98077.50;4948196;29;20027;-76
2021/09/24 07:36:42;;;;;;;10.95;2.97;;;;;;;12.53;62.65;98084.47;4952677;29;20074;-76
2021/09/24 07:39:08;;;;;;;5.53;1.95;;;;;;;12.55;62.80;98093.22;4951322;29;20031;-76
2021/09/24 07:41:33;;;;;;;11.15;2.75;;;;;;;12.57;63.09;98090.97;4948204;29;20114;-78
2021/09/24 07:44:00;;;;;;;7.65;2.85;;;;;;;12.62;63.21;98092.75;4952422;29;20210;-76
2021/09/24 07:46:26;;;;;;;9.63;2.83;;;;;;;12.65;63.11;98100.38;4953061;29;20028;-76
2021/09/24 07:48:51;;;;;;;8.25;2.53;;;;;;;12.69;63.24;98093.09;4952187;29;20480;-74
2021/09/24 07:51:17;;;;;;;8.27;2.30;;;;;;;12.72;63.28;98089.72;4951711;29;20031;-75
2021/09/24 07:53:43;;;;;;;11.32;2.60;;;;;;;12.80;62.46;98110.94;4952464;29;20027;-76
2021/09/24 07:56:10;;;;;;;10.68;3.50;;;;;;;12.82;62.49;98094.09;4952865;29;20038;-74
2021/09/24 07:58:38;;;;;;;9.57;2.90;;;;;;;12.88;62.96;98103.00;4951413;28;20043;-75
2021/09/24 08:01:04;;;;;;;7.95;2.17;;;;;;;12.94;62.66;98093.47;4951735;29;20046;-86
2021/09/24 08:03:29;;;;;;;10.90;4.45;;;;;;;13.05;62.30;98105.81;4945261;28;20055;-76
2021/09/24 08:05:54;;;;;;;7.85;2.50;;;;;;;13.11;62.33;98103.69;4952699;28;20722;-77
2021/09/24 08:08:20;;;;;;;11.82;3.83;;;;;;;13.11;60.32;98109.19;4950456;29;20479;-73
2021/09/24 08:10:45;;;;;;;6.63;2.03;;;;;;;13.10;59.69;98104.81;4951123;29;20031;-74
2021/09/24 08:13:11;;;;;;;9.43;3.15;;;;;;;13.09;60.01;98112.28;4951688;29;20034;-76
2021/09/24 08:15:42;;;;;;;6.75;2.10;;;;;;;13.15;59.61;98109.38;4952061;29;20064;-76
2021/09/24 08:18:07;;;;;;;7.22;2.42;;;;;;;13.14;59.45;98130.59;4952120;29;20470;-73
2021/09/24 08:20:33;;;;;;;7.47;2.33;;;;;;;13.15;58.30;98101.13;4950256;29;20158;-79
2021/09/24 08:22:58;;;;;;;10.90;3.47;;;;;;;13.18;59.06;98106.00;4950723;29;20479;-78
2021/09/24 08:25:24;;;;;;;9.40;2.70;;;;;;;13.21;58.96;98103.38;4951395;29;20114;-76
2021/09/24 08:27:50;;;;;;;10.93;3.70;;;;;;;13.25;58.63;98111.81;4946703;28;20023;-74
2021/09/24 08:30:17;;;;;;;8.27;2.58;;;;;;;13.28;57.85;98094.63;4935573;29;20172;-74
2021/09/24 08:32:43;;;;;;;10.05;3.30;;;;;;;13.27;57.74;98111.50;4951041;29;20035;-77
2021/09/24 08:35:11;;;;;;;6.20;2.63;;;;;;;13.29;57.77;98117.50;4951542;29;20376;-77
2021/09/24 08:37:38;;;;;;;7.80;2.28;;;;;;;13.36;58.45;98117.84;4949893;29;20050;-76
2021/09/24 08:40:06;;;;;;;7.60;2.70;;;;;;;13.42;58.02;98113.00;4951472;29;20080;-77
2021/09/24 08:42:33;;;;;;;6.65;2.92;;;;;;;13.40;57.22;98127.88;4951538;29;20114;-75
2021/09/24 08:44:59;;;;;;;5.32;2.10;;;;;;;13.43;58.35;98125.63;4950421;29;20029;-76
2021/09/24 08:47:27;;;;;;;3.53;1.67;;;;;;;13.47;57.42;98121.09;4933642;29;20024;-75
2021/09/24 08:49:53;;;;;;;6.70;1.95;;;;;;;13.52;57.79;98129.22;4948756;29;20078;-76
2021/09/24 08:52:18;;;;;;;8.15;2.03;;;;;;;13.62;57.43;98119.78;4925430;29;20861;-75
2021/09/24 08:54:44;;;;;;;8.52;2.17;;;;;;;13.65;56.88;98130.97;4950677;29;20027;-80
2021/09/24 08:57:15;;;;;;;8.35;2.55;;;;;;;13.71;57.04;98120.59;4934643;29;20027;-74
2021/09/24 08:59:40;;;;;;;11.25;4.03;;;;;;;13.76;57.55;98138.91;4951015;29;20538;-76
2021/09/24 09:02:09;;;;;;;10.88;2.85;;;;;;;13.72;55.81;98138.75;4951108;29;20035;-75
2021/09/24 09:04:41;;;;;;;6.40;2.30;;;;;;;13.85;55.29;98136.97;4950000;29;20514;-80
2021/09/24 09:07:09;;;;;;;5.18;1.70;;;;;;;13.90;55.77;98144.25;4951903;29;20199;-78
2021/09/24 09:09:37;;;;;;;7.78;2.95;;;;;;;13.99;56.32;98126.56;4951901;28;20106;-76
2021/09/24 09:12:32;;;;;;;6.82;2.80;;;;;;;14.11;57.20;98138.88;4952775;29;20179;-83
2021/09/24 09:15:11;;;;;;;8.52;2.90;;;;;;;14.16;55.34;98135.94;4931868;29;20035;-79
2021/09/24 09:17:47;;;;;;;11.27;3.53;;;;;;;14.15;56.20;98145.34;4954508;29;20031;-73
2021/09/24 09:20:23;;;;;;;14.63;4.40;;;;;;;14.18;56.40;98139.19;4953304;29;20518;-76
2021/09/24 09:22:51;;;;;;;8.23;3.47;;;;;;;14.25;56.22;98145.00;4953809;29;20023;-77
2021/09/24 09:25:26;;;;;;;9.88;4.13;;;;;;;14.34;56.88;98156.00;4954909;29;20078;-76
2021/09/24 09:27:54;;;;;;;11.05;4.65;;;;;;;14.38;56.72;98154.22;4937927;29;20039;-79
2021/09/24 09:30:20;;;;;;;8.82;3.30;;;;;;;14.36;56.22;98158.44;4955491;29;20027;-77
2021/09/24 09:33:02;;;;;;;9.60;3.47;;;;;;;14.36;56.55;98159.25;4953161;29;20635;-74
2021/09/24 09:35:29;;;;;;;6.65;2.50;;;;;;;14.32;56.27;98169.31;4935191;28;20117;-76
2021/09/24 09:37:56;;;;;;;6.55;2.38;;;;;;;14.30;56.66;98166.06;4953494;29;20027;-80
2021/09/24 09:40:22;;;;;;;5.55;2.40;;;;;;;14.35;56.76;98176.16;4951693;29;20039;-78
2021/09/24 09:42:50;;;;;;;10.10;4.22;;;;;;;14.47;56.55;98169.94;4949620;29;20049;-77
2021/09/24 09:45:17;;;;;;;19.88;8.20;;;;;;;14.49;56.30;98179.50;4953414;29;20023;-78
2021/09/24 09:47:47;;;;;;;8.15;2.45;;;;;;;14.56;56.73;98168.75;4952853;29;20121;-74
2021/09/24 09:50:20;;;;;;;9.50;2.20;;;;;;;14.54;56.25;98168.28;4952213;29;21097;-76
2021/09/24 09:53:10;;;;;;;9.48;1.92;;;;;;;14.65;56.47;98178.97;4938184;29;20032;-76
2021/09/24 09:55:46;;;;;;;6.68;2.55;;;;;;;14.69;56.72;98180.75;4954323;29;20035;-78
2021/09/24 09:58:11;;;;;;;6.53;2.17;;;;;;;14.68;55.13;98200.38;4955114;29;20015;-77
2021/09/24 10:00:54;;;;;;;6.18;2.20;;;;;;;14.67;54.53;98171.97;4955418;29;20109;-78
2021/09/24 10:03:28;;;;;;;5.47;2.90;;;;;;;14.73;55.28;98186.44;4937441;29;20055;-78
2021/09/24 10:05:54;;;;;;;2.97;1.80;;;;;;;14.77;54.56;98187.41;4955076;29;20028;-76
2021/09/24 10:08:24;;;;;;;6.90;2.67;;;;;;;14.81;55.14;98215.16;4954748;29;20364;-76
2021/09/24 10:11:01;;;;;;;8.93;3.63;;;;;;;14.84;54.94;98184.94;4954444;29;20062;-75
2021/09/24 10:13:35;;;;;;;9.73;3.08;;;;;;;14.93;54.35;98193.19;4954540;29;20031;-75
2021/09/24 10:16:02;;;;;;;4.30;2.40;;;;;;;14.99;53.76;98194.63;4953745;29;20023;-74
2021/09/24 10:18:29;;;;;;;8.00;2.58;;;;;;;15.03;54.91;98192.81;4954900;29;20028;-76
2021/09/24 10:20:54;;;;;;;9.40;3.08;;;;;;;14.96;54.10;98192.53;4953818;28;20034;-77
2021/09/24 10:23:20;;;;;;;7.50;2.75;;;;;;;14.95;54.63;98196.41;4954545;29;20102;-74
2021/09/24 10:25:55;;;;;;;8.90;3.67;;;;;;;14.93;55.45;98192.34;4954674;29;20082;-77
2021/09/24 10:28:26;;;;;;;7.50;3.40;;;;;;;14.89;55.14;98194.97;4954879;29;20023;-77
2021/09/24 10:30:53;;;;;;;6.45;2.90;;;;;;;14.87;54.60;98203.63;4954286;29;20037;-75
2021/09/24 10:33:18;;;;;;;9.90;3.42;;;;;;;14.84;54.43;98203.44;4954380;29;20039;-77
2021/09/24 10:35:54;;;;;;;6.60;2.45;;;;;;;14.82;54.79;98203.78;4954772;29;20172;-75
2021/09/24 10:38:25;;;;;;;7.72;2.72;;;;;;;14.82;55.03;98209.31;4954482;29;20054;-75
2021/09/24 10:41:02;;;;;;;9.10;2.75;;;;;;;14.81;54.94;98221.50;4936955;29;20028;-76
2021/09/24 10:43:39;;;;;;;7.72;2.90;;;;;;;14.78;55.33;98213.03;4954323;29;20035;-76
2021/09/24 10:46:24;;;;;;;22.50;9.30;;;;;;;14.85;55.26;98221.63;4954455;29;20036;-76
2021/09/24 10:49:23;;;;;;;7.00;2.58;;;;;;;14.95;55.07;98224.03;4954263;29;20070;-76
2021/09/24 10:51:58;;;;;;;8.50;3.10;;;;;;;15.09;55.17;98223.81;4953907;29;20031;-77
2021/09/24 10:54:25;;;;;;;9.70;3.30;;;;;;;15.26;55.68;98213.81;4954280;29;20035;-76
2021/09/24 10:57:06;;;;;;;11.95;3.78;;;;;;;15.45;55.87;98222.47;4953406;29;20023;-77
2021/09/24 10:59:34;;;;;;;8.30;2.78;;;;;;;15.51;54.35;98214.00;4953879;29;20027;-74
2021/09/24 11:02:20;;;;;;;7.63;3.70;;;;;;;15.53;54.58;98197.88;4954146;29;20015;-76
2021/09/24 11:04:48;;;;;;;7.05;2.47;;;;;;;15.48;54.03;98212.72;4954014;29;20558;-74
2021/09/24 11:07:30;;;;;;;9.38;2.78;;;;;;;15.40;54.25;98211.59;4936100;29;20491;-74
2021/09/24 11:09:56;;;;;;;3.53;1.80;;;;;;;15.45;54.43;98216.16;4953995;29;20030;-74
2021/09/24 11:12:22;;;;;;;3.78;1.77;;;;;;;15.59;54.58;98216.69;4953614;29;20074;-75
2021/09/24 11:15:09;;;;;;;18.50;8.70;;;;;;;15.73;53.58;98227.47;4953953;29;20055;-75
2021/09/24 11:17:39;;;;;;;5.15;1.90;;;;;;;15.72;53.07;98233.38;4953214;29;20487;-75
2021/09/24 11:20:27;;;;;;;5.50;1.80;;;;;;;15.59;52.36;98232.47;4953617;29;20019;-74
2021/09/24 11:22:53;;;;;;;8.95;3.13;;;;;;;15.49;53.19;98233.66;4953274;29;20054;-75
2021/09/24 11:25:18;;;;;;;10.27;4.93;;;;;;;15.51;54.02;98228.59;4953689;29;20051;-75
2021/09/24 11:27:46;;;;;;;6.22;2.05;;;;;;;15.63;53.09;98220.41;4953501;29;20015;-76
2021/09/24 11:30:15;;;;;;;5.90;1.63;;;;;;;15.65;52.91;98224.78;4951559;29;20460;-75
2021/09/24 11:32:44;;;;;;;8.07;2.85;;;;;;;15.71;53.88;98228.97;4952031;28;20114;-75
2021/09/24 11:35:37;;;;;;;7.95;2.63;;;;;;;15.89;53.01;98241.56;4952912;29;20027;-75
2021/09/24 11:38:05;;;;;;;6.90;3.60;;;;;;;15.88;52.30;98231.66;4953591;29;20620;-74
2021/09/24 11:40:31;;;;;;;13.48;5.97;;;;;;;15.81;52.59;98228.59;4953223;29;20027;-76
2021/09/24 11:42:59;;;;;;;8.88;3.45;;;;;;;15.81;53.06;98222.22;4952957;29;20102;-74
2021/09/24 11:45:29;;;;;;;7.70;2.65;;;;;;;15.83;53.17;98217.19;4953029;29;20042;-76
2021/09/24 11:48:04;;;;;;;8.38;2.47;;;;;;;15.97;52.66;98214.16;4953420;29;20509;-76
2021/09/24 11:50:30;;;;;;;6.47;2.90;;;;;;;16.06;52.02;98210.19;4953122;29;20098;-76
2021/09/24 11:52:58;;;;;;;5.97;1.80;;;;;;;16.18;52.62;98203.06;4952637;29;20458;-76
2021/09/24 11:55:23;;;;;;;7.53;2.67;;;;;;;16.19;51.88;98207.47;4934764;29;20803;-76
2021/09/24 11:58:10;;;;;;;8.35;4.38;;;;;;;16.16;51.71;98208.13;4950808;29;20027;-76
2021/09/24 12:00:38;;;;;;;9.27;2.90;;;;;;;16.10;50.69;98199.25;4934636;29;20546;-76
2021/09/24 12:03:21;;;;;;;10.27;2.80;;;;;;;16.16;49.95;98197.06;4952373;29;20506;-76
2021/09/24 12:06:07;;;;;;;7.05;3.10;;;;;;;16.35;51.54;98193.78;4952526;29;20054;-77
2021/09/24 12:08:44;;;;;;;7.93;3.15;;;;;;;16.57;51.58;98200.09;4951792;29;20034;-75
2021/09/24 12:11:25;;;;;;;10.60;5.15;;;;;;;16.62;50.78;98200.66;4948841;29;20035;-76
2021/09/24 12:13:53;;;;;;;23.20;10.23;;;;;;;16.82;51.08;98198.97;4951292;29;20200;-77
2021/09/24 12:16:19;;;;;;;23.75;10.73;;;;;;;16.98;49.91;98203.06;4950771;29;20027;-76
2021/09/24 12:19:05;;;;;;;22.58;9.82;;;;;;;16.99;49.75;98201.91;4951592;29;20470;-79
2021/09/24 12:21:50;;;;;;;10.70;3.00;;;;;;;17.13;49.18;98207.09;4951181;29;20093;-75
2021/09/24 12:24:35;;;;;;;22.17;8.25;;;;;;;17.22;49.08;98194.75;4948903;29;20030;-77
2021/09/24 12:27:13;;;;;;;20.10;8.80;;;;;;;17.29;48.07;98198.91;4950820;29;20019;-74
2021/09/24 12:29:42;;;;;;;30.60;14.32;;;;;;;17.34;47.27;98188.38;4949724;29;20023;-73
2021/09/24 12:32:18;;;;;;;17.37;5.93;;;;;;;17.39;47.14;98199.25;4951321;29;20031;-75
2021/09/24 12:34:52;;;;;;;12.05;3.10;;;;;;;17.51;46.55;98189.31;4933925;29;20024;-78
2021/09/24 12:37:30;;;;;;;11.48;4.10;;;;;;;17.34;45.47;98193.13;4947602;29;20470;-82
2021/09/24 12:39:58;;;;;;;6.50;2.40;;;;;;;17.24;45.75;98198.00;4950494;29;20089;-78
2021/09/24 12:42:31;;;;;;;15.10;5.00;;;;;;;17.30;46.78;98187.47;4951790;29;20440;-76
2021/09/24 12:45:00;;;;;;;10.82;3.05;;;;;;;17.51;47.11;98195.66;4951556;28;20446;-75
2021/09/24 12:47:29;;;;;;;10.57;4.15;;;;;;;17.69;46.50;98198.97;4951241;29;20082;-76
2021/09/24 12:49:57;;;;;;;8.37;2.07;;;;;;;18.00;44.98;98191.97;4951063;29;20031;-76
2021/09/24 12:52:25;;;;;;;8.90;2.53;;;;;;;18.49;45.10;98203.22;4951822;29;20782;-79
2021/09/24 12:54:50;;;;;;;7.35;2.00;;;;;;;18.94;45.35;98204.78;4919112;29;20290;-73
2021/09/24 12:57:17;;;;;;;7.55;1.90;;;;;;;19.29;43.41;98203.25;4951791;29;20043;-76
2021/09/24 13:00:11;;;;;;;11.00;3.63;;;;;;;19.68;41.32;98196.97;4952009;29;20094;-74
2021/09/24 13:02:37;;;;;;;11.05;3.10;;;;;;;20.26;42.35;98190.66;4932635;29;20043;-75
2021/09/24 13:05:04;;;;;;;7.35;2.03;;;;;;;21.16;39.46;98190.66;4951904;29;20185;-75
2021/09/24 13:07:30;;;;;;;5.43;1.80;;;;;;;22.04;39.46;98196.28;4952347;29;20031;-76
2021/09/24 13:10:14;;;;;;;8.00;2.95;;;;;;;23.15;36.77;98187.47;4952210;29;20514;-74
2021/09/24 13:12:40;;;;;;;8.95;3.20;;;;;;;23.52;38.39;98185.72;4950281;29;20128;-76
2021/09/24 13:15:09;;;;;;;7.57;1.80;;;;;;;23.51;36.30;98196.13;4947634;29;20028;-75
2021/09/24 13:17:36;;;;;;;9.13;1.70;;;;;;;23.03;35.84;98208.94;4949516;29;20094;-73
2021/09/24 13:20:04;;;;;;;7.60;1.70;;;;;;;22.12;36.14;98203.59;4950226;29;20031;-75
2021/09/24 13:22:31;;;;;;;7.32;1.60;;;;;;;22.54;36.58;98201.69;4949992;29;20105;-77
2021/09/24 13:24:56;;;;;;;5.53;1.40;;;;;;;23.01;35.88;98197.34;4949939;29;20030;-77
2021/09/24 13:27:22;;;;;;;7.18;1.90;;;;;;;23.48;34.26;98194.91;4951213;29;20024;-77
2021/09/24 13:29:47;;;;;;;6.03;2.22;;;;;;;24.15;35.54;98194.88;4950452;29;20031;-78
2021/09/24 13:32:14;;;;;;;6.15;2.30;;;;;;;25.19;34.70;98192.69;4951656;29;20023;-77
2021/09/24 13:34:42;;;;;;;7.45;2.92;;;;;;;25.80;33.14;98195.44;4951881;29;20023;-75
2021/09/24 13:37:08;;;;;;;9.05;3.72;;;;;;;27.03;31.98;98202.44;4951804;29;20024;-74
2021/09/24 13:39:34;;;;;;;9.00;2.65;;;;;;;27.41;31.05;98204.56;4933279;29;20047;-76